createdAt,value
2022-07-27T00:00:08.475Z,100.00
2022-07-27T00:05:13.346Z,100.00
2022-07-27T00:10:17.762Z,100.00
2022-07-27T00:15:19.318Z,100.00
2022-07-27T00:20:22.964Z,100.00
2022-07-27T00:25:28.915Z,100.00
2022-07-27T00:30:30.502Z,100.00
2022-07-27T00:35:31.993Z,100.00
2022-07-27T00:40:40.365Z,100.00
2022-07-27T00:45:41.768Z,100.00
2022-07-27T00:50:45.567Z,100.00
2022-07-27T00:55:46.861Z,100.00
2022-07-27T01:00:48.387Z,100.00
2022-07-27T01:05:50.685Z,100.00
2022-07-27T01:10:57.284Z,100.00
2022-07-27T01:16:17.071Z,100.00
2022-07-27T01:21:24.493Z,100.00
2022-07-27T01:26:36.081Z,100.00
2022-07-27T01:31:37.475Z,100.00
2022-07-27T01:36:38.888Z,100.00
2022-07-27T01:41:40.172Z,100.00
2022-07-27T01:46:41.521Z,100.00
2022-07-27T01:51:42.832Z,100.00
2022-07-27T01:56:44.341Z,100.00
2022-07-27T02:01:46.811Z,100.00
2022-07-27T02:06:48.160Z,100.00
2022-07-27T02:12:08.069Z,100.00
2022-07-27T02:17:09.338Z,100.00
2022-07-27T02:22:11.426Z,100.00
2022-07-27T02:27:12.927Z,100.00
2022-07-27T02:32:14.198Z,100.00
2022-07-27T02:37:15.574Z,100.00
2022-07-27T02:42:16.849Z,100.00
2022-07-27T02:47:18.160Z,100.00
2022-07-27T02:52:22.945Z,100.00
2022-07-27T02:57:24.203Z,100.00
2022-07-27T03:02:25.478Z,100.00
2022-07-27T03:07:26.690Z,100.00
2022-07-27T03:12:27.953Z,100.00
2022-07-27T03:17:29.194Z,100.00
2022-07-27T03:22:32.055Z,100.00
2022-07-27T03:27:35.278Z,100.00
2022-07-27T03:32:36.715Z,100.00
2022-07-27T03:37:37.968Z,100.00
2022-07-27T03:42:42.186Z,100.00
2022-07-27T03:47:43.495Z,100.00
2022-07-27T03:52:45.446Z,100.00
2022-07-27T03:57:57.158Z,100.00
2022-07-27T04:02:58.512Z,100.00
2022-07-27T04:08:00.410Z,100.00
2022-07-27T04:13:01.689Z,100.00
2022-07-27T04:18:04.902Z,100.00
2022-07-27T04:23:06.169Z,100.00
2022-07-27T04:28:07.449Z,100.00
2022-07-27T04:33:08.736Z,100.00
2022-07-27T04:38:09.933Z,100.00
2022-07-27T04:43:29.720Z,100.00
2022-07-27T04:48:35.167Z,100.00
2022-07-27T04:59:33.597Z,100.00
2022-07-27T05:04:35.172Z,100.00
2022-07-27T05:09:36.523Z,100.00
2022-07-27T05:14:37.822Z,100.00
2022-07-27T05:19:39.797Z,100.00
2022-07-27T05:24:42.316Z,100.00
2022-07-27T05:29:43.657Z,100.00
2022-07-27T05:34:45.802Z,100.00
2022-07-27T05:39:47.119Z,100.00
2022-07-27T05:44:54.652Z,100.00
2022-07-27T05:49:55.948Z,100.00
2022-07-27T05:54:57.157Z,100.00
2022-07-27T06:00:00.583Z,100.00
2022-07-27T06:05:02.368Z,100.00
2022-07-27T06:10:04.357Z,100.00
2022-07-27T06:15:07.366Z,100.00
2022-07-27T06:20:09.100Z,100.00
2022-07-27T06:25:11.613Z,100.00
2022-07-27T06:30:15.427Z,100.00
2022-07-27T06:35:16.811Z,100.00
2022-07-27T06:40:20.296Z,100.00
2022-07-27T06:45:21.639Z,100.00
2022-07-27T06:50:22.958Z,100.00
2022-07-27T06:55:27.447Z,100.00
2022-07-27T07:00:42.060Z,100.00
2022-07-27T07:05:57.566Z,100.00
2022-07-27T07:10:59.039Z,100.00
2022-07-27T07:16:21.032Z,100.00
2022-07-27T07:21:31.124Z,100.00
2022-07-27T07:26:32.538Z,100.00
2022-07-27T07:31:34.134Z,100.00
2022-07-27T07:36:44.389Z,100.00
2022-07-27T07:41:45.642Z,100.00
2022-07-27T07:46:47.369Z,100.00
2022-07-27T07:51:48.832Z,100.00
2022-07-27T07:56:50.027Z,100.00
2022-07-27T08:01:59.885Z,100.00
2022-07-27T08:07:01.406Z,100.00
2022-07-27T08:12:02.934Z,100.00
2022-07-27T08:17:04.229Z,100.00
2022-07-27T08:22:05.761Z,100.00
2022-07-27T08:27:07.065Z,100.00
2022-07-27T08:32:08.482Z,100.00
2022-07-27T08:37:15.069Z,100.00
2022-07-27T08:42:18.511Z,100.00
2022-07-27T08:47:24.144Z,100.00
2022-07-27T08:52:25.912Z,100.00
2022-07-27T08:57:27.299Z,100.00
2022-07-27T09:02:28.768Z,100.00
2022-07-27T09:07:41.000Z,100.00
2022-07-27T09:12:42.418Z,100.00
2022-07-27T09:17:48.662Z,100.00
2022-07-27T09:22:52.095Z,100.00
2022-07-27T09:27:55.773Z,100.00
2022-07-27T09:33:01.221Z,100.00
2022-07-27T09:38:23.930Z,100.00
2022-07-27T09:49:02.092Z,100.00
2022-07-27T09:54:08.574Z,100.00
2022-07-27T09:59:27.986Z,99.95
2022-07-27T10:04:32.906Z,91.62
2022-07-27T10:09:34.549Z,89.20
2022-07-27T10:14:35.894Z,87.81
2022-07-27T10:19:51.291Z,84.10
2022-07-27T10:24:59.417Z,81.43
2022-07-27T10:30:05.006Z,80.78
2022-07-27T10:35:33.096Z,74.77
2022-07-27T10:40:45.158Z,74.18
2022-07-27T10:46:02.549Z,72.04
2022-07-27T10:51:06.641Z,69.94
2022-07-27T10:56:09.997Z,64.77
2022-07-27T11:01:12.920Z,62.25
2022-07-27T11:11:43.530Z,58.79
2022-07-27T11:16:55.255Z,57.10
2022-07-27T11:21:58.023Z,53.31
2022-07-27T11:26:59.632Z,53.95
2022-07-27T11:32:02.401Z,54.89
2022-07-27T11:37:13.635Z,53.37
2022-07-27T11:42:20.819Z,52.01
2022-07-27T11:47:36.740Z,51.69
2022-07-27T11:52:38.616Z,-1.00
2022-07-27T11:57:39.979Z,-1.00
2022-07-27T12:02:51.391Z,-1.00
2022-07-27T12:07:54.185Z,-1.00
2022-07-27T12:12:56.014Z,-1.00
2022-07-27T12:17:57.494Z,-1.00
2022-07-27T12:23:06.054Z,-1.00
2022-07-27T12:28:12.963Z,-1.00
2022-07-27T12:33:37.566Z,-1.00
2022-07-27T12:38:41.400Z,-1.00
2022-07-27T12:44:21.585Z,-1.00
2022-07-27T12:49:24.725Z,-1.00
2022-07-27T12:54:25.946Z,-1.00
2022-07-27T12:59:27.402Z,-1.00
2022-07-27T13:04:28.895Z,-1.00
2022-07-27T13:10:02.143Z,-1.00
2022-07-27T13:14:51.947Z,-1.00
2022-07-27T13:19:54.508Z,-1.00
2022-07-27T13:24:56.244Z,-1.00
2022-07-27T13:29:59.411Z,-1.00
2022-07-27T13:35:00.875Z,-1.00
2022-07-27T13:40:02.370Z,-1.00
2022-07-27T13:45:10.794Z,-1.00
2022-07-27T13:50:18.281Z,-1.00
2022-07-27T13:55:24.763Z,-1.00
2022-07-27T14:00:29.134Z,-1.00
2022-07-27T14:05:32.794Z,-1.00
2022-07-27T14:10:41.098Z,-1.00
2022-07-27T14:15:53.028Z,-1.00
2022-07-27T14:20:58.273Z,-1.00
2022-07-27T14:26:00.939Z,-1.00
2022-07-27T14:31:05.548Z,-1.00
2022-07-27T14:36:29.050Z,-1.00
2022-07-27T14:41:44.487Z,-1.00
2022-07-27T14:46:46.715Z,-1.00
2022-07-27T14:51:48.437Z,-1.00
2022-07-27T14:56:49.741Z,-1.00
2022-07-27T15:01:58.079Z,-1.00
2022-07-27T15:07:03.248Z,-1.00
2022-07-27T15:12:05.078Z,-1.00
2022-07-27T15:17:09.641Z,-1.00
2022-07-27T15:22:11.063Z,-1.00
2022-07-27T15:27:13.494Z,-1.00
2022-07-27T15:32:15.353Z,-1.00
2022-07-27T15:37:18.271Z,-1.00
2022-07-27T15:42:21.082Z,-1.00
2022-07-27T15:47:22.406Z,-1.00
2022-07-27T15:52:23.911Z,-1.00
2022-07-27T15:57:25.186Z,-1.00
2022-07-27T16:02:28.364Z,-1.00
2022-07-27T16:07:40.766Z,-1.00
2022-07-27T16:12:54.228Z,-1.00
2022-07-27T16:17:56.345Z,-1.00
2022-07-27T16:22:58.212Z,-1.00
2022-07-27T16:28:20.041Z,-1.00
2022-07-27T16:33:25.200Z,-1.00
2022-07-27T16:38:27.786Z,-1.00
2022-07-27T16:43:38.524Z,-1.00
2022-07-27T16:48:42.361Z,-1.00
2022-07-27T16:53:47.481Z,-1.00
2022-07-27T16:58:49.539Z,-1.00
2022-07-27T17:03:50.915Z,-1.00
2022-07-27T17:09:05.054Z,-1.00
2022-07-27T17:14:13.807Z,-1.00
2022-07-27T17:19:16.474Z,-1.00
2022-07-27T17:24:17.893Z,-1.00
2022-07-27T17:29:19.487Z,-1.00
2022-07-27T17:34:21.344Z,-1.00
2022-07-27T17:39:22.989Z,-1.00
2022-07-27T17:44:24.258Z,-1.00
2022-07-27T17:49:25.632Z,-1.00
2022-07-27T17:54:27.078Z,-1.00
2022-07-27T17:59:37.486Z,-1.00
2022-07-27T18:04:39.987Z,-1.00
2022-07-27T18:09:42.143Z,-1.00
2022-07-27T18:15:03.759Z,-1.00
2022-07-27T18:20:09.893Z,-1.00
2022-07-27T18:25:11.778Z,-1.00
2022-07-27T18:30:13.248Z,-1.00
2022-07-27T18:35:15.673Z,-1.00
2022-07-27T18:40:17.554Z,-1.00
2022-07-27T18:45:18.919Z,-1.00
2022-07-27T18:50:20.894Z,-1.00
2022-07-27T18:55:24.547Z,-1.00
2022-07-27T19:00:27.021Z,-1.00
2022-07-27T19:05:32.275Z,-1.00
2022-07-27T19:10:43.658Z,-1.00
2022-07-27T19:15:45.441Z,-1.00
2022-07-27T19:20:46.904Z,-1.00
2022-07-27T19:25:48.476Z,-1.00
2022-07-27T19:30:51.497Z,-1.00
2022-07-27T19:36:14.146Z,-1.00
2022-07-27T19:41:28.965Z,-1.00
2022-07-27T19:46:30.783Z,-1.00
2022-07-27T19:51:32.880Z,-1.00
2022-07-27T19:56:37.350Z,-1.00
2022-07-27T20:01:38.930Z,-1.00
2022-07-27T20:06:40.682Z,-1.00
2022-07-27T20:11:42.443Z,-1.00
2022-07-27T20:16:44.064Z,-1.00
2022-07-27T20:21:45.687Z,-1.00
2022-07-27T20:26:49.028Z,-1.00
2022-07-27T20:31:54.561Z,-1.00
2022-07-27T20:36:57.674Z,-1.00
2022-07-27T20:42:19.098Z,-1.00
2022-07-27T20:47:34.814Z,-1.00
2022-07-27T20:52:37.903Z,-1.00
2022-07-27T20:57:39.717Z,-1.00
2022-07-27T21:02:41.073Z,-1.00
2022-07-27T21:07:52.071Z,-1.00
2022-07-27T21:13:07.423Z,-1.00
2022-07-27T21:18:08.872Z,-1.00
2022-07-27T21:23:36.028Z,-1.00
2022-07-27T21:28:49.471Z,-1.00
2022-07-27T21:34:01.752Z,-1.00
2022-07-27T21:39:04.107Z,-1.00
2022-07-27T21:44:05.442Z,-1.00
2022-07-27T21:49:16.122Z,-1.00
2022-07-27T21:54:18.128Z,-1.00
2022-07-27T21:59:19.455Z,-1.00
2022-07-27T22:04:20.989Z,-1.00
2022-07-27T22:09:22.638Z,-1.00
2022-07-27T22:14:24.993Z,-1.00
2022-07-27T22:19:26.267Z,-1.00
2022-07-27T22:24:27.660Z,-1.00
2022-07-27T22:29:29.069Z,-1.00
2022-07-27T22:34:30.422Z,-1.00
2022-07-27T22:39:31.891Z,-1.00
2022-07-27T22:44:36.954Z,-1.00
2022-07-27T22:49:38.274Z,-1.00
2022-07-27T22:54:53.544Z,-1.00
2022-07-27T22:59:54.850Z,-1.00
2022-07-27T23:04:59.182Z,-1.00
2022-07-27T23:10:01.428Z,-1.00
2022-07-27T23:15:02.955Z,-1.00
2022-07-27T23:20:05.468Z,-1.00
2022-07-27T23:25:07.972Z,-1.00
2022-07-27T23:30:10.313Z,-1.00
2022-07-27T23:35:11.960Z,-1.00
2022-07-27T23:40:13.286Z,-1.00
2022-07-27T23:45:14.749Z,-1.00
2022-07-27T23:50:16.588Z,-1.00
2022-07-27T23:55:17.997Z,-1.00
